createdAt,value
2023-01-19T00:04:29.377Z,65616.78
2023-01-19T00:09:38.370Z,65594.16
2023-01-19T00:14:44.302Z,65582.44
2023-01-19T00:19:48.819Z,65648.59
2023-01-19T00:24:53.419Z,65515.34
2023-01-19T00:29:59.588Z,65554.50
2023-01-19T00:35:04.361Z,65586.72
2023-01-19T00:40:10.573Z,65664.59
2023-01-19T00:45:18.645Z,65590.97
2023-01-19T00:50:23.152Z,65681.69
2023-01-19T00:55:28.722Z,65730.81
2023-01-19T01:00:34.717Z,65744.25
2023-01-19T01:05:42.640Z,65707.94
2023-01-19T01:10:47.065Z,65695.78
2023-01-19T01:15:53.425Z,65744.91
2023-01-19T01:21:02.945Z,65762.63
2023-01-19T01:26:07.394Z,65723.34
2023-01-19T01:31:13.351Z,65752.72
2023-01-19T01:36:19.096Z,65796.09
2023-01-19T01:41:25.355Z,65706.88
2023-01-19T01:46:32.869Z,65684.44
2023-01-19T01:51:43.263Z,65676.34
2023-01-19T01:56:49.603Z,65693.00
2023-01-19T02:02:14.648Z,65765.72
2023-01-19T02:07:45.531Z,65776.75
2023-01-19T02:13:07.996Z,65758.78
2023-01-19T02:18:14.394Z,65789.34
2023-01-19T02:23:24.976Z,65792.44
2023-01-19T02:28:32.432Z,65805.72
2023-01-19T02:33:37.472Z,65799.41
2023-01-19T02:38:45.438Z,65784.41
2023-01-19T02:43:52.117Z,65774.09
2023-01-19T02:49:00.651Z,65738.69
2023-01-19T02:54:22.306Z,65701.53
2023-01-19T02:59:45.454Z,65515.88
2023-01-19T03:05:06.726Z,65455.44
2023-01-19T03:10:19.156Z,65420.41
2023-01-19T03:15:32.398Z,65388.63
2023-01-19T03:20:38.015Z,65487.72
2023-01-19T03:25:47.436Z,65473.34
2023-01-19T03:31:00.550Z,65548.84
2023-01-19T03:36:09.732Z,65417.41
2023-01-19T03:41:18.075Z,65406.00
2023-01-19T03:46:25.879Z,65452.88
2023-01-19T03:51:31.058Z,65438.50
2023-01-19T03:56:35.536Z,65377.44
2023-01-19T04:01:41.817Z,65394.50
2023-01-19T04:06:46.400Z,65391.19
2023-01-19T04:11:51.515Z,65279.72
2023-01-19T04:16:57.485Z,65335.28
2023-01-19T04:22:02.141Z,65313.69
2023-01-19T04:33:27.857Z,65275.16
2023-01-19T05:00:53.700Z,65272.59
2023-01-19T05:06:27.528Z,65210.16
2023-01-19T05:11:32.295Z,65239.94
2023-01-19T05:16:38.341Z,65236.22
2023-01-19T05:21:42.871Z,65176.84
2023-01-19T05:26:47.699Z,65158.56
2023-01-19T05:31:53.733Z,65232.59
2023-01-19T05:36:58.328Z,65217.25
2023-01-19T05:42:02.754Z,65270.25
2023-01-19T05:47:08.714Z,65284.50
2023-01-19T05:52:13.297Z,65301.03
2023-01-19T05:57:17.771Z,65263.34
2023-01-19T06:02:28.834Z,65330.41
2023-01-19T06:07:33.977Z,65326.13
2023-01-19T06:12:40.227Z,65350.53
2023-01-19T06:17:48.455Z,65289.94
2023-01-19T06:22:53.013Z,65380.97
2023-01-19T06:27:57.563Z,65349.56
2023-01-19T06:33:05.795Z,65311.75
2023-01-19T06:38:14.178Z,65373.06
2023-01-19T06:43:22.198Z,65344.75
2023-01-19T06:48:36.711Z,65382.75
2023-01-19T06:53:50.423Z,65351.16
2023-01-19T06:58:58.721Z,65310.25
2023-01-19T07:04:08.707Z,65286.31
2023-01-19T07:09:20.394Z,65315.69
2023-01-19T07:14:25.833Z,65260.69
2023-01-19T07:19:31.790Z,65227.69
2023-01-19T07:24:38.135Z,65205.38
2023-01-19T07:29:43.047Z,65190.91
2023-01-19T07:34:49.080Z,65192.81
2023-01-19T07:39:55.747Z,65178.78
2023-01-19T07:45:01.136Z,65187.91
2023-01-19T07:50:09.372Z,65160.69
2023-01-19T07:55:17.621Z,65152.84
2023-01-19T08:00:26.101Z,65164.44
2023-01-19T08:05:32.699Z,65204.84
2023-01-19T08:10:42.819Z,65221.75
2023-01-19T08:16:00.855Z,65197.28
2023-01-19T08:21:39.100Z,65163.47
2023-01-19T08:27:03.779Z,65163.56
2023-01-19T08:32:34.382Z,65173.56
2023-01-19T08:38:10.673Z,65208.56
2023-01-19T08:43:34.642Z,65168.03
2023-01-19T09:13:30.402Z,65157.72
2023-01-19T09:19:25.581Z,65186.84
2023-01-19T09:24:30.997Z,65160.38
2023-01-19T09:29:36.307Z,65187.59
2023-01-19T09:34:42.369Z,65153.03
2023-01-19T09:39:49.803Z,65159.63
2023-01-19T09:44:55.684Z,65143.28
2023-01-19T09:50:05.782Z,65146.25
2023-01-19T09:55:21.549Z,65178.78
2023-01-19T10:01:40.153Z,65247.81
2023-01-19T10:08:55.460Z,65227.28
2023-01-19T10:14:27.556Z,65228.13
2023-01-19T10:19:38.239Z,65199.72
2023-01-19T10:24:45.028Z,65208.78
2023-01-19T10:29:51.544Z,65177.28
2023-01-19T10:34:58.286Z,65176.22
2023-01-19T10:40:17.204Z,65179.53
2023-01-19T10:45:26.724Z,65171.31
2023-01-19T10:50:33.795Z,65168.03
2023-01-19T10:55:43.692Z,65185.78
2023-01-19T11:00:53.020Z,65153.91
2023-01-19T11:06:27.955Z,65153.81
2023-01-19T11:11:44.625Z,65152.09
2023-01-19T11:16:55.037Z,65166.56
2023-01-19T11:22:16.873Z,65169.22
2023-01-19T11:27:23.291Z,65132.00
2023-01-19T11:32:34.301Z,65153.16
2023-01-19T11:37:43.948Z,65164.31
2023-01-19T11:42:53.561Z,65160.28
2023-01-19T11:48:03.404Z,65123.72
2023-01-19T11:53:15.922Z,65156.03
2023-01-19T11:58:21.865Z,65181.31
2023-01-19T12:03:31.847Z,65197.50
2023-01-19T12:08:41.275Z,65252.06
2023-01-19T12:13:47.867Z,65190.59
2023-01-19T12:19:00.815Z,65196.31
2023-01-19T12:24:16.421Z,65181.03
2023-01-19T12:29:23.186Z,65172.41
2023-01-19T12:34:42.518Z,65162.84
2023-01-19T12:39:50.468Z,65162.94
2023-01-19T12:45:06.160Z,65187.91
2023-01-19T12:50:19.288Z,65226.22
2023-01-19T12:55:26.004Z,65195.47
2023-01-19T13:00:34.430Z,65239.41
2023-01-19T13:06:01.352Z,65192.72
2023-01-19T13:11:18.273Z,65290.69
2023-01-19T13:17:02.373Z,65256.00
2023-01-19T13:22:43.871Z,65254.41
2023-01-19T13:27:50.045Z,65270.34
2023-01-19T13:32:55.435Z,65268.13
2023-01-19T13:38:01.029Z,65314.09
2023-01-19T13:43:16.242Z,65275.69
2023-01-19T13:48:23.456Z,65239.94
2023-01-19T13:53:29.513Z,65251.09
2023-01-19T13:58:35.859Z,65229.63
2023-01-19T14:03:42.610Z,65198.97
2023-01-19T14:08:47.195Z,65183.13
2023-01-19T14:13:53.470Z,65238.88
2023-01-19T14:19:02.511Z,65212.38
2023-01-19T14:24:11.614Z,65247.38
2023-01-19T14:29:25.851Z,65200.78
2023-01-19T14:34:34.579Z,65189.63
2023-01-19T14:39:39.426Z,65230.78
2023-01-19T14:44:49.362Z,65194.84
2023-01-19T14:49:56.258Z,65163.91
2023-01-19T14:55:03.205Z,65143.69
2023-01-19T15:00:20.508Z,65225.16
2023-01-19T15:05:25.480Z,65198.56
2023-01-19T15:10:31.359Z,65161.97
2023-01-19T15:15:48.739Z,65147.31
2023-01-19T15:21:03.367Z,65156.44
2023-01-19T15:32:53.532Z,65140.63
2023-01-19T15:46:30.262Z,65139.44
2023-01-19T15:52:17.866Z,65150.59
2023-01-19T15:57:22.757Z,65127.75
2023-01-19T16:02:52.195Z,65142.22
2023-01-19T16:08:03.273Z,65149.00
2023-01-19T16:13:08.049Z,65130.94
2023-01-19T16:18:14.085Z,65146.66
2023-01-19T16:23:28.735Z,65132.41
2023-01-19T16:28:38.787Z,65171.31
2023-01-19T16:33:43.553Z,65142.63
2023-01-19T16:38:52.537Z,65132.13
2023-01-19T16:43:59.353Z,65178.69
2023-01-19T16:49:08.395Z,65152.63
2023-01-19T16:54:16.956Z,65120.31
2023-01-19T16:59:23.335Z,65158.47
2023-01-19T17:04:28.482Z,65182.50
2023-01-19T17:09:37.546Z,65185.16
2023-01-19T17:14:43.260Z,65193.66
2023-01-19T17:19:47.413Z,65239.63
2023-01-19T17:24:53.463Z,65154.97
2023-01-19T17:29:59.087Z,65163.47
2023-01-19T17:35:11.383Z,65151.47
2023-01-19T17:40:18.214Z,65170.28
2023-01-19T17:45:22.811Z,65156.97
2023-01-19T17:50:27.417Z,65126.25
2023-01-19T17:55:35.298Z,65154.34
2023-01-19T18:00:39.966Z,65158.69
2023-01-19T18:05:44.617Z,65213.03
2023-01-19T18:10:56.346Z,65223.44
2023-01-19T18:16:01.973Z,65138.38
2023-01-19T18:21:07.675Z,65216.97
2023-01-19T18:26:15.249Z,65205.38
2023-01-19T18:31:20.704Z,65202.38
2023-01-19T18:36:25.359Z,65222.81
2023-01-19T18:41:31.933Z,65228.34
2023-01-19T18:46:36.474Z,65275.78
2023-01-19T18:51:41.736Z,65290.47
2023-01-19T18:56:49.201Z,65228.13
2023-01-19T19:01:53.890Z,65224.28
2023-01-19T19:06:58.636Z,65209.63
2023-01-19T19:12:04.741Z,65230.25
2023-01-19T19:17:09.583Z,65268.13
2023-01-19T19:22:14.768Z,65302.72
2023-01-19T19:27:20.974Z,65267.69
2023-01-19T19:32:25.526Z,65246.19
2023-01-19T19:37:30.523Z,65270.69
2023-01-19T19:42:37.684Z,65228.22
2023-01-19T19:47:43.004Z,65214.94
2023-01-19T19:52:47.530Z,65228.22
2023-01-19T19:57:53.464Z,65231.94
2023-01-19T20:02:57.830Z,65222.81
2023-01-19T20:08:03.023Z,65243.13
2023-01-19T20:13:09.355Z,65255.25
2023-01-19T20:18:16.035Z,65278.25
2023-01-19T20:23:25.446Z,65271.66
2023-01-19T20:28:31.579Z,65245.16
2023-01-19T20:33:36.179Z,65267.25
2023-01-19T20:38:41.909Z,65266.41
2023-01-19T20:43:48.089Z,65195.78
2023-01-19T20:48:54.740Z,65202.38
2023-01-19T20:53:59.449Z,65191.53
2023-01-19T20:59:05.430Z,65202.69
2023-01-19T21:04:10.141Z,65215.34
2023-01-19T21:09:14.575Z,65225.16
2023-01-19T21:14:20.960Z,65224.00
2023-01-19T21:19:25.553Z,65219.09
2023-01-19T21:24:32.979Z,65200.03
2023-01-19T21:29:38.845Z,65217.50
2023-01-19T21:34:44.497Z,65179.22
2023-01-19T21:39:48.599Z,65180.06
2023-01-19T21:44:54.540Z,65186.84
2023-01-19T21:49:59.014Z,65217.59
2023-01-19T21:55:03.557Z,65266.53
2023-01-19T22:00:11.779Z,65251.72
2023-01-19T22:05:16.356Z,65246.00
2023-01-19T22:10:20.876Z,65273.88
2023-01-19T22:15:26.896Z,65207.50
2023-01-19T22:20:31.430Z,65215.47
2023-01-19T22:25:36.077Z,65175.16
2023-01-19T22:30:42.198Z,65209.72
2023-01-19T22:35:46.512Z,65210.91
2023-01-19T22:40:51.021Z,65250.78
2023-01-19T22:45:59.214Z,65257.16
2023-01-19T22:51:04.250Z,65251.63
2023-01-19T22:56:13.762Z,65286.94
2023-01-19T23:01:21.480Z,65357.00
2023-01-19T23:06:27.854Z,65258.75
2023-01-19T23:11:36.099Z,65210.91
2023-01-19T23:16:42.660Z,65235.88
2023-01-19T23:21:47.449Z,65263.97
2023-01-19T23:26:52.565Z,65196.44
2023-01-19T23:31:58.503Z,65237.81
2023-01-19T23:37:02.599Z,65198.03
2023-01-19T23:42:08.256Z,65206.97
2023-01-19T23:47:13.817Z,65225.16
2023-01-19T23:52:18.236Z,65208.03
2023-01-19T23:57:22.727Z,65207.50
